Time;durP1;ratioP1;P1;durP2;ratioP2;P2;SDS_P1;SDS_P2;PMS_P1;PMS_P2;Temp;Humidity;BMP_temperature;BMP_pressure;BME280_temperature;BME280_humidity;BME280_pressure;Samples;Min_cycle;Max_cycle;Signal;HPM_P1;HPM_P2
2021/04/05 00:00:33;;;;;;;16.90;5.28;;;10.10;99.90;;;;;;5051981;28;20410;-59
2021/04/05 00:03:00;;;;;;;17.58;5.55;;;10.10;99.90;;;;;;5051058;28;20441;-60
2021/04/05 00:05:29;;;;;;;14.63;5.35;;;10.10;99.90;;;;;;5051792;28;20017;-60
2021/04/05 00:07:54;;;;;;;15.23;5.97;;;10.10;99.90;;;;;;5051773;28;20091;-60
2021/04/05 00:10:24;;;;;;;17.75;6.43;;;10.00;99.90;;;;;;5051433;28;20068;-60
2021/04/05 00:12:51;;;;;;;16.27;6.70;;;10.10;99.90;;;;;;5051765;28;20388;-59
2021/04/05 00:15:18;;;;;;;17.48;7.00;;;10.00;99.90;;;;;;5051487;28;20031;-59
2021/04/05 00:17:46;;;;;;;19.83;7.25;;;10.00;99.90;;;;;;5046718;28;20029;-60
2021/04/05 00:20:20;;;;;;;20.02;7.38;;;10.00;99.90;;;;;;5050389;28;20036;-59
2021/04/05 00:22:45;;;;;;;11.93;5.53;;;10.00;99.90;;;;;;5051777;28;20029;-59
2021/04/05 00:25:12;;;;;;;20.15;7.70;;;9.90;99.90;;;;;;5049840;28;20057;-61
2021/04/05 00:27:39;;;;;;;26.05;7.93;;;9.90;99.90;;;;;;5050806;28;20025;-60
2021/04/05 00:30:10;;;;;;;19.45;8.23;;;9.90;99.90;;;;;;5051752;28;20025;-62
2021/04/05 00:32:35;;;;;;;19.50;8.40;;;10.00;99.90;;;;;;5051467;28;20820;-61
2021/04/05 00:35:04;;;;;;;20.58;7.50;;;10.00;99.90;;;;;;5050504;28;20123;-59
2021/04/05 00:37:30;;;;;;;18.27;8.07;;;9.90;99.90;;;;;;5051663;28;20051;-59
2021/04/05 00:39:56;;;;;;;15.38;7.60;;;10.00;99.90;;;;;;5050870;28;20040;-61
2021/04/05 00:42:21;;;;;;;20.63;8.68;;;9.90;99.90;;;;;;5050278;28;20090;-59
2021/04/05 00:44:47;;;;;;;19.65;8.45;;;9.90;99.90;;;;;;5049964;28;20065;-60
2021/04/05 00:47:14;;;;;;;20.77;8.15;;;9.90;99.90;;;;;;5051681;28;20041;-60
2021/04/05 00:49:40;;;;;;;16.77;8.15;;;9.90;99.90;;;;;;5049908;28;20031;-59
2021/04/05 00:52:06;;;;;;;21.80;8.57;;;9.80;99.90;;;;;;5051535;28;20029;-60
2021/04/05 00:54:32;;;;;;;19.00;8.40;;;9.80;99.90;;;;;;5051140;28;20037;-60
2021/04/05 00:56:58;;;;;;;18.83;8.68;;;9.80;99.90;;;;;;5050948;28;20060;-60
2021/04/05 00:59:24;;;;;;;23.60;8.50;;;9.80;99.90;;;;;;5050999;28;20112;-60
2021/04/05 01:01:50;;;;;;;19.83;8.63;;;9.80;99.90;;;;;;5051523;28;20116;-60
2021/04/05 01:04:15;;;;;;;24.75;9.40;;;9.80;99.90;;;;;;5050981;28;20053;-61
2021/04/05 01:06:41;;;;;;;25.65;9.20;;;9.80;99.90;;;;;;5050940;28;20115;-61
2021/04/05 01:09:08;;;;;;;25.85;9.32;;;9.80;99.90;;;;;;5049752;28;20041;-61
2021/04/05 01:11:35;;;;;;;20.27;8.90;;;9.80;99.90;;;;;;5050966;28;20025;-60
2021/04/05 01:14:00;;;;;;;19.27;9.68;;;9.70;99.90;;;;;;5050798;28;20060;-60
2021/04/05 01:16:29;;;;;;;19.40;9.05;;;9.80;99.90;;;;;;5051446;28;20525;-60
2021/04/05 01:18:56;;;;;;;20.02;9.27;;;9.80;99.90;;;;;;5050893;28;20453;-59
2021/04/05 01:21:22;;;;;;;25.13;9.32;;;9.70;99.90;;;;;;5050516;28;20051;-60
2021/04/05 01:23:48;;;;;;;20.27;9.05;;;9.80;99.90;;;;;;5050191;28;20041;-60
2021/04/05 01:26:14;;;;;;;20.35;9.00;;;9.80;99.90;;;;;;5040310;28;20036;-61
2021/04/05 01:28:40;;;;;;;21.17;9.40;;;9.80;99.90;;;;;;5041917;28;20505;-59
2021/04/05 01:31:06;;;;;;;20.15;9.35;;;9.80;99.90;;;;;;5050222;28;20033;-60
2021/04/05 01:33:34;;;;;;;22.38;9.70;;;9.80;99.90;;;;;;5051029;28;20036;-61
2021/04/05 01:36:09;;;;;;;22.88;9.30;;;9.80;99.90;;;;;;5050663;28;20466;-59
2021/04/05 01:38:39;;;;;;;21.00;9.97;;;9.80;99.90;;;;;;5051255;28;20028;-61
2021/04/05 01:41:07;;;;;;;20.50;9.52;;;9.70;99.90;;;;;;5050531;28;20029;-61
2021/04/05 01:43:34;;;;;;;20.33;9.48;;;9.80;99.90;;;;;;5051055;28;20048;-60
2021/04/05 01:46:01;;;;;;;23.73;9.50;;;9.70;99.90;;;;;;5050322;28;20038;-61
2021/04/05 01:48:29;;;;;;;20.75;10.02;;;9.70;99.90;;;;;;5051186;28;20378;-60
2021/04/05 01:51:07;;;;;;;22.35;9.63;;;9.60;99.90;;;;;;5050526;28;20045;-59
2021/04/05 01:53:34;;;;;;;21.40;9.85;;;9.70;99.90;;;;;;5049985;28;20410;-60
2021/04/05 01:56:04;;;;;;;22.65;9.85;;;9.60;99.90;;;;;;5054014;28;20171;-60
2021/04/05 01:58:31;;;;;;;22.48;9.55;;;9.50;99.90;;;;;;5054527;28;20033;-61
2021/04/05 02:00:58;;;;;;;22.20;10.13;;;9.60;99.90;;;;;;5054690;28;20090;-60
2021/04/05 02:03:27;;;;;;;23.88;9.50;;;9.50;99.90;;;;;;5054097;28;20068;-60
2021/04/05 02:05:57;;;;;;;23.30;9.68;;;9.50;99.90;;;;;;5053671;28;20025;-60
2021/04/05 02:08:23;;;;;;;23.02;9.52;;;9.50;99.90;;;;;;5054292;28;20489;-59
2021/04/05 02:10:51;;;;;;;24.13;9.57;;;9.50;99.90;;;;;;5054547;28;20355;-60
2021/04/05 02:13:20;;;;;;;21.40;9.82;;;9.50;99.90;;;;;;5053830;28;20033;-60
2021/04/05 02:15:46;;;;;;;20.00;9.55;;;9.50;99.90;;;;;;5054697;28;20060;-61
2021/04/05 02:18:12;;;;;;;21.48;9.60;;;9.50;99.90;;;;;;5054160;28;20467;-59
2021/04/05 02:20:39;;;;;;;23.45;9.60;;;9.40;99.90;;;;;;5054423;28;20100;-60
2021/04/05 02:23:05;;;;;;;20.17;9.63;;;9.40;99.90;;;;;;5054198;28;20037;-59
2021/04/05 02:25:33;;;;;;;25.02;10.32;;;9.40;99.90;;;;;;5053489;28;20033;-61
2021/04/05 02:28:02;;;;;;;24.27;9.85;;;9.40;99.90;;;;;;5061451;28;20028;-59
2021/04/05 02:30:29;;;;;;;20.75;9.25;;;9.30;99.90;;;;;;5054712;28;20025;-59
2021/04/05 02:33:03;;;;;;;21.48;9.60;;;9.30;99.90;;;;;;5054179;28;20025;-61
2021/04/05 02:35:32;;;;;;;22.70;9.65;;;9.30;99.90;;;;;;5053887;28;20119;-58
2021/04/05 02:38:01;;;;;;;28.20;9.55;;;9.30;99.90;;;;;;5053912;28;20467;-61
2021/04/05 02:40:29;;;;;;;22.67;9.38;;;9.30;99.90;;;;;;5053426;28;20545;-60
2021/04/05 02:42:56;;;;;;;24.00;9.13;;;9.30;99.90;;;;;;5053915;28;20116;-59
2021/04/05 02:45:24;;;;;;;21.20;9.27;;;9.30;99.90;;;;;;5053528;28;20526;-60
2021/04/05 02:47:53;;;;;;;22.73;9.40;;;9.40;99.90;;;;;;5053902;28;20406;-61
2021/04/05 02:50:21;;;;;;;20.55;9.05;;;9.40;99.90;;;;;;5053262;28;20060;-60
2021/04/05 02:52:48;;;;;;;22.42;8.88;;;9.40;99.90;;;;;;5052547;28;20049;-59
2021/04/05 02:55:15;;;;;;;21.83;8.95;;;9.30;99.90;;;;;;5053309;28;20029;-59
2021/04/05 02:57:43;;;;;;;23.45;9.50;;;9.30;99.90;;;;;;5053559;28;20041;-60
2021/04/05 03:00:14;;;;;;;25.02;9.07;;;9.30;99.90;;;;;;5053549;28;20021;-59
2021/04/05 03:02:42;;;;;;;22.58;8.43;;;9.30;99.90;;;;;;5052066;28;20037;-59
2021/04/05 03:05:10;;;;;;;21.40;9.45;;;9.30;99.90;;;;;;5052561;28;20548;-60
2021/04/05 03:07:36;;;;;;;18.50;8.93;;;9.30;99.90;;;;;;5047739;28;20060;-59
2021/04/05 03:10:08;;;;;;;19.45;9.20;;;9.30;99.90;;;;;;5052957;28;20024;-60
2021/04/05 03:12:38;;;;;;;19.63;8.65;;;9.20;99.90;;;;;;5053775;28;20079;-60
2021/04/05 03:15:08;;;;;;;20.85;9.52;;;9.30;99.90;;;;;;5037550;28;20059;-58
2021/04/05 03:17:35;;;;;;;18.48;9.15;;;9.30;99.90;;;;;;5053527;28;20033;-59
2021/04/05 03:20:14;;;;;;;25.10;10.27;;;9.30;99.90;;;;;;5053080;28;20025;-59
2021/04/05 03:22:41;;;;;;;22.80;8.80;;;9.30;99.90;;;;;;5052596;28;20120;-58
2021/04/05 03:25:22;;;;;;;18.90;9.02;;;9.30;99.90;;;;;;5051602;28;20095;-59
2021/04/05 03:27:49;;;;;;;22.60;8.93;;;9.20;99.90;;;;;;5053053;28;20025;-59
2021/04/05 03:30:20;;;;;;;20.02;8.68;;;9.20;99.90;;;;;;5052490;28;20454;-59
2021/04/05 03:32:49;;;;;;;21.85;8.38;;;9.20;99.90;;;;;;5052759;28;20029;-59
2021/04/05 03:35:33;;;;;;;17.70;8.80;;;9.20;99.90;;;;;;5052840;28;20116;-59
2021/04/05 03:38:01;;;;;;;19.17;8.02;;;9.20;99.90;;;;;;5051495;28;20029;-59
2021/04/05 03:40:28;;;;;;;19.38;8.75;;;9.20;99.90;;;;;;5053025;28;20037;-59
2021/04/05 03:43:15;;;;;;;19.95;7.82;;;9.20;99.90;;;;;;5052432;28;20037;-60
2021/04/05 03:45:48;;;;;;;20.02;8.57;;;9.20;99.90;;;;;;5052608;28;20025;-59
2021/04/05 03:48:28;;;;;;;22.02;9.23;;;9.10;99.90;;;;;;5052554;28;20025;-59
2021/04/05 03:51:09;;;;;;;20.33;8.48;;;9.10;99.90;;;;;;5052741;28;20029;-60
2021/04/05 03:53:53;;;;;;;21.90;7.90;;;9.10;99.90;;;;;;5052513;28;20067;-60
2021/04/05 03:56:21;;;;;;;19.20;8.00;;;9.10;99.90;;;;;;5052496;28;20029;-59
2021/04/05 03:58:53;;;;;;;21.15;6.80;;;9.10;99.90;;;;;;5051182;28;20080;-58
2021/04/05 04:01:28;;;;;;;14.98;6.57;;;9.20;99.90;;;;;;5051828;28;20054;-59
2021/04/05 04:04:04;;;;;;;15.20;6.45;;;9.10;99.90;;;;;;5052203;28;20440;-59
2021/04/05 04:06:50;;;;;;;12.52;5.22;;;9.10;99.90;;;;;;5044922;28;20025;-59
2021/04/05 04:09:19;;;;;;;13.13;4.07;;;9.10;99.90;;;;;;5047269;28;20037;-60
2021/04/05 04:11:48;;;;;;;8.20;2.83;;;9.20;99.90;;;;;;5051286;28;20051;-59
2021/04/05 04:14:16;;;;;;;8.82;2.13;;;9.30;99.90;;;;;;5046180;28;20071;-59
2021/04/05 04:16:44;;;;;;;8.18;2.50;;;9.30;99.90;;;;;;5048983;28;20021;-59
2021/04/05 04:19:10;;;;;;;17.92;2.67;;;9.20;99.90;;;;;;5052264;28;20032;-61
2021/04/05 04:21:40;;;;;;;14.35;2.20;;;9.00;99.90;;;;;;5051860;28;20041;-62
2021/04/05 04:24:07;;;;;;;14.27;2.25;;;8.90;99.90;;;;;;5051566;28;20169;-60
2021/04/05 04:26:34;;;;;;;12.00;2.95;;;8.80;99.90;;;;;;5050925;28;20024;-62
2021/04/05 04:29:00;;;;;;;11.23;2.72;;;8.70;99.90;;;;;;5051648;28;20079;-60
2021/04/05 04:31:25;;;;;;;31.60;3.72;;;8.60;99.90;;;;;;5051024;28;20506;-59
2021/04/05 04:33:51;;;;;;;30.88;4.05;;;8.50;99.90;;;;;;5050483;28;20029;-60
2021/04/05 04:36:26;;;;;;;20.20;3.70;;;8.50;99.90;;;;;;5051409;28;20166;-59
2021/04/05 04:38:54;;;;;;;15.77;3.42;;;8.40;99.90;;;;;;5051674;28;20044;-60
2021/04/05 04:41:23;;;;;;;22.20;3.95;;;8.30;99.90;;;;;;5050731;28;20136;-60
2021/04/05 04:44:01;;;;;;;15.95;3.75;;;8.30;99.90;;;;;;5048235;28;20032;-58
2021/04/05 04:46:28;;;;;;;25.42;3.72;;;8.30;99.90;;;;;;5051076;28;20032;-59
2021/04/05 04:48:55;;;;;;;20.00;3.97;;;8.20;99.90;;;;;;5047230;28;20163;-59
2021/04/05 04:51:21;;;;;;;30.50;4.70;;;8.20;99.90;;;;;;5046784;28;20028;-59
2021/04/05 04:53:47;;;;;;;25.77;4.07;;;8.20;99.90;;;;;;5048415;28;20040;-59
2021/04/05 04:56:14;;;;;;;22.85;4.00;;;8.10;99.90;;;;;;5042980;28;20028;-59
2021/04/05 04:58:40;;;;;;;18.80;4.22;;;8.00;99.90;;;;;;5043595;28;20467;-59
2021/04/05 05:01:06;;;;;;;21.85;4.05;;;8.00;99.90;;;;;;5050960;28;20029;-59
2021/04/05 05:03:32;;;;;;;24.83;3.95;;;7.90;99.90;;;;;;5050097;28;20120;-59
2021/04/05 05:06:00;;;;;;;15.02;3.67;;;7.80;99.90;;;;;;5034747;28;20048;-61
2021/04/05 05:08:26;;;;;;;12.32;3.58;;;7.70;99.90;;;;;;5036500;28;20080;-59
2021/04/05 05:10:53;;;;;;;16.67;3.42;;;7.60;99.90;;;;;;5044683;28;20387;-60
2021/04/05 05:13:19;;;;;;;15.25;3.75;;;7.60;99.90;;;;;;5050956;28;20039;-60
2021/04/05 05:15:46;;;;;;;14.88;3.75;;;7.50;99.90;;;;;;5050493;28;20450;-58
2021/04/05 05:18:12;;;;;;;17.10;3.78;;;7.50;99.90;;;;;;5050777;28;20025;-58
2021/04/05 05:20:38;;;;;;;24.35;3.80;;;7.40;99.90;;;;;;5050105;28;20025;-60
2021/04/05 05:23:05;;;;;;;19.35;3.45;;;7.30;99.90;;;;;;5049908;28;20025;-59
2021/04/05 05:25:33;;;;;;;17.65;3.65;;;7.20;99.90;;;;;;5050642;28;20035;-60
2021/04/05 05:28:05;;;;;;;18.95;3.88;;;7.20;99.90;;;;;;5067771;28;20491;-59
2021/04/05 05:30:31;;;;;;;23.05;3.78;;;7.10;99.90;;;;;;5048819;28;20068;-59
2021/04/05 05:33:01;;;;;;;20.08;3.72;;;7.00;99.90;;;;;;5046695;28;20452;-60
2021/04/05 05:35:27;;;;;;;18.92;3.67;;;7.00;99.90;;;;;;5050530;28;20033;-60
2021/04/05 05:38:00;;;;;;;14.95;3.17;;;6.90;99.90;;;;;;5050877;28;20036;-59
2021/04/05 05:40:27;;;;;;;12.30;3.22;;;6.90;99.90;;;;;;5048675;28;20061;-59
2021/04/05 05:42:56;;;;;;;13.85;3.60;;;6.90;99.90;;;;;;5050659;28;20033;-59
2021/04/05 05:45:25;;;;;;;19.85;3.83;;;6.90;99.90;;;;;;5050181;28;20037;-59
2021/04/05 05:48:21;;;;;;;18.70;4.00;;;6.80;99.90;;;;;;5051448;28;20064;-59
2021/04/05 05:50:58;;;;;;;19.60;4.05;;;6.80;99.90;;;;;;5063279;28;20398;-60
2021/04/05 05:53:47;;;;;;;16.40;3.55;;;6.80;99.90;;;;;;5050551;28;20112;-58
2021/04/05 05:56:32;;;;;;;16.17;3.95;;;6.80;99.90;;;;;;5042222;28;20372;-60
2021/04/05 05:59:14;;;;;;;15.60;3.72;;;6.80;99.90;;;;;;5050063;28;20027;-59
2021/04/05 06:02:07;;;;;;;19.40;3.70;;;6.80;99.90;;;;;;5049468;28;20774;-60
2021/04/05 06:05:07;;;;;;;18.58;3.67;;;6.80;99.90;;;;;;5050078;28;20060;-58
2021/04/05 06:07:51;;;;;;;18.23;3.65;;;6.80;99.90;;;;;;5049979;28;20025;-61
2021/04/05 06:10:43;;;;;;;19.67;3.25;;;6.80;99.90;;;;;;5049658;28;20742;-62
2021/04/05 06:13:27;;;;;;;25.20;3.05;;;6.60;99.90;;;;;;5050609;28;20033;-60
2021/04/05 06:16:04;;;;;;;15.93;2.50;;;6.50;99.90;;;;;;5050191;28;20025;-58
2021/04/05 06:18:58;;;;;;;11.50;1.92;;;6.20;99.90;;;;;;5043544;28;20038;-60
2021/04/05 06:22:02;;;;;;;9.00;1.67;;;5.80;99.90;;;;;;5045086;28;20052;-59
2021/04/05 06:24:53;;;;;;;16.15;2.08;;;5.40;99.90;;;;;;5027213;28;20474;-59
2021/04/05 06:27:38;;;;;;;8.88;1.60;;;5.30;99.90;;;;;;5047476;28;20048;-60
2021/04/05 06:30:08;;;;;;;;;;;5.10;99.90;;;;;;5050391;28;20545;-58
2021/04/05 06:33:12;;;;;;;15.75;2.60;;;5.00;99.90;;;;;;5049146;28;19962;-59
2021/04/05 06:35:49;;;;;;;14.05;2.40;;;4.80;99.90;;;;;;5049935;28;20021;-59
2021/04/05 06:39:11;;;;;;;12.40;2.22;;;4.70;99.90;;;;;;5043930;28;20033;-59
2021/04/05 06:41:39;;;;;;;15.40;3.08;;;4.60;99.90;;;;;;5034311;28;20495;-60
2021/04/05 06:44:29;;;;;;;12.13;2.70;;;4.50;99.90;;;;;;5052797;28;20033;-61
2021/04/05 06:47:03;;;;;;;22.48;3.63;;;4.40;99.90;;;;;;5053875;28;20060;-60
2021/04/05 06:49:47;;;;;;;16.85;3.45;;;4.40;99.90;;;;;;5053290;28;20430;-58
2021/04/05 06:52:31;;;;;;;19.98;3.40;;;4.30;99.90;;;;;;5051790;28;20482;-57
2021/04/05 06:55:15;;;;;;;20.73;4.07;;;4.30;99.90;;;;;;5052857;28;20490;-57
2021/04/05 06:58:03;;;;;;;22.23;3.70;;;4.30;99.90;;;;;;5051868;28;20090;-61
2021/04/05 07:00:36;;;;;;;25.83;4.28;;;4.30;99.90;;;;;;5052913;28;20033;-62
2021/04/05 07:03:50;;;;;;;24.95;4.50;;;4.30;99.90;;;;;;5053214;28;20044;-60
2021/04/05 07:06:15;;;;;;;22.25;4.28;;;4.30;99.90;;;;;;5050338;28;20045;-62
2021/04/05 07:08:54;;;;;;;22.35;4.07;;;4.30;99.90;;;;;;5052028;28;20513;-60
2021/04/05 07:11:27;;;;;;;24.83;4.03;;;4.40;99.90;;;;;;5052804;28;20047;-59
2021/04/05 07:14:17;;;;;;;28.20;4.40;;;4.30;99.90;;;;;;5052647;28;20707;-59
2021/04/05 07:17:09;;;;;;;25.58;4.30;;;4.30;99.90;;;;;;5052177;28;20100;-58
2021/04/05 07:19:57;;;;;;;25.60;4.05;;;4.30;99.90;;;;;;5050726;28;20138;-59
2021/04/05 07:22:28;;;;;;;24.05;4.18;;;4.40;99.90;;;;;;5052346;28;20029;-60
2021/04/05 07:25:06;;;;;;;21.63;4.63;;;4.40;99.90;;;;;;5052753;28;20072;-59
2021/04/05 07:27:53;;;;;;;21.70;4.93;;;4.50;99.90;;;;;;5051736;28;20065;-59
2021/04/05 07:30:28;;;;;;;25.02;4.50;;;4.40;99.90;;;;;;5052076;28;20107;-61
2021/04/05 07:33:08;;;;;;;21.77;4.03;;;4.50;99.90;;;;;;5052368;28;20033;-58
2021/04/05 07:35:52;;;;;;;16.13;3.72;;;4.50;99.90;;;;;;5051006;28;20030;-59
2021/04/05 07:38:18;;;;;;;22.25;3.63;;;4.60;99.90;;;;;;5049793;28;20417;-60
2021/04/05 07:40:51;;;;;;;12.60;3.10;;;4.60;99.90;;;;;;5051667;28;20025;-59
2021/04/05 07:43:53;;;;;;;15.95;2.97;;;4.50;99.90;;;;;;5052649;28;20068;-58
2021/04/05 07:46:18;;;;;;;17.67;3.45;;;4.50;99.90;;;;;;5046351;28;20053;-59
2021/04/05 07:49:17;;;;;;;12.88;2.50;;;4.50;99.90;;;;;;5051770;28;20440;-60
2021/04/05 07:51:48;;;;;;;10.02;2.30;;;4.50;99.90;;;;;;5051506;28;20033;-60
2021/04/05 07:54:17;;;;;;;13.60;2.75;;;4.50;99.90;;;;;;5051373;28;20547;-60
2021/04/05 07:56:54;;;;;;;21.25;3.10;;;4.50;99.90;;;;;;5051313;28;20040;-59
2021/04/05 07:59:39;;;;;;;11.68;2.20;;;4.40;99.90;;;;;;5051879;28;20032;-60
2021/04/05 08:02:11;;;;;;;12.82;2.38;;;4.30;99.90;;;;;;5050628;28;20449;-60
2021/04/05 08:05:13;;;;;;;13.27;2.42;;;4.30;99.90;;;;;;5039358;28;20021;-60
2021/04/05 08:07:44;;;;;;;12.20;2.80;;;4.40;99.90;;;;;;5050977;28;20024;-59
2021/04/05 08:10:19;;;;;;;13.07;2.97;;;4.40;99.90;;;;;;5052125;28;20593;-59
2021/04/05 08:12:54;;;;;;;10.73;2.17;;;4.40;99.90;;;;;;5051908;28;20049;-59
2021/04/05 08:15:26;;;;;;;;;;;4.50;99.90;;;;;;5051770;28;20035;-60
2021/04/05 08:18:12;;;;;;;14.70;3.70;;;4.40;99.90;;;;;;5050412;28;19999;-60
2021/04/05 08:20:48;;;;;;;16.52;3.15;;;4.40;99.90;;;;;;5051003;28;20029;-59
2021/04/05 08:23:35;;;;;;;16.65;3.28;;;4.40;99.90;;;;;;5045304;28;20029;-60
2021/04/05 08:26:27;;;;;;;16.98;3.97;;;4.30;99.90;;;;;;5049222;28;20040;-59
2021/04/05 08:29:02;;;;;;;17.05;3.72;;;4.20;99.90;;;;;;5037633;28;20120;-60
2021/04/05 08:32:09;;;;;;;18.17;3.55;;;4.20;99.90;;;;;;5047641;28;20056;-59
2021/04/05 08:34:41;;;;;;;17.63;3.50;;;4.00;99.90;;;;;;5045060;28;20028;-59
2021/04/05 08:37:21;;;;;;;13.30;3.22;;;4.00;99.90;;;;;;5046315;28;20517;-60
2021/04/05 08:40:13;;;;;;;15.18;3.33;;;4.00;99.90;;;;;;5048580;28;20079;-60
2021/04/05 08:42:48;;;;;;;17.23;3.10;;;3.90;99.90;;;;;;5048767;28;20686;-60
2021/04/05 08:45:20;;;;;;;14.45;3.92;;;3.80;99.90;;;;;;5048821;28;20410;-60
2021/04/05 08:47:57;;;;;;;11.52;3.25;;;3.80;99.90;;;;;;5051626;28;20024;-58
2021/04/05 08:50:28;;;;;;;12.13;3.67;;;3.70;99.90;;;;;;5050586;28;20044;-57
2021/04/05 08:52:55;;;;;;;22.08;3.72;;;3.60;99.90;;;;;;5050220;28;20033;-60
2021/04/05 08:55:26;;;;;;;15.68;3.28;;;3.70;99.90;;;;;;5050191;28;20040;-60
2021/04/05 08:58:26;;;;;;;16.65;2.97;;;3.60;99.90;;;;;;5046568;28;20168;-60
2021/04/05 09:00:57;;;;;;;26.20;4.65;;;3.70;99.90;;;;;;5040526;28;20179;-60
2021/04/05 09:03:28;;;;;;;34.42;4.25;;;3.70;99.90;;;;;;5053965;28;20025;-59
2021/04/05 09:05:54;;;;;;;21.10;3.88;;;3.90;99.90;;;;;;5049321;28;20119;-60
2021/04/05 09:08:22;;;;;;;17.77;3.88;;;4.00;99.90;;;;;;5049039;28;20304;-60
2021/04/05 09:10:55;;;;;;;18.73;4.03;;;4.10;99.90;;;;;;5049681;28;20043;-59
2021/04/05 09:13:44;;;;;;;19.92;3.50;;;4.00;99.90;;;;;;5048308;28;20491;-59
2021/04/05 09:16:24;;;;;;;20.67;3.83;;;4.20;99.90;;;;;;5050135;28;20082;-59
2021/04/05 09:19:27;;;;;;;20.67;4.05;;;4.30;99.90;;;;;;5049974;28;20041;-58
2021/04/05 09:22:17;;;;;;;16.70;3.67;;;4.50;99.90;;;;;;5046442;28;20398;-60
2021/04/05 09:24:50;;;;;;;19.90;3.75;;;4.60;99.90;;;;;;5048173;28;20077;-59
2021/04/05 09:27:53;;;;;;;13.40;3.63;;;5.00;99.90;;;;;;5050189;28;20115;-60
2021/04/05 09:30:57;;;;;;;17.05;3.55;;;5.20;99.90;;;;;;5049400;28;20486;-58
2021/04/05 09:33:44;;;;;;;13.10;2.97;;;5.40;99.90;;;;;;5046704;28;20035;-60
2021/04/05 09:36:16;;;;;;;9.40;3.05;;;5.90;99.90;;;;;;5050880;28;20025;-60
2021/04/05 09:39:21;;;;;;;15.75;2.90;;;5.80;99.90;;;;;;5047364;28;20070;-60
2021/04/05 09:42:05;;;;;;;18.73;3.03;;;5.70;99.90;;;;;;5048628;28;20063;-59
2021/04/05 09:45:02;;;;;;;13.02;2.95;;;5.60;99.90;;;;;;5042630;28;20037;-60
2021/04/05 09:47:57;;;;;;;12.32;2.92;;;5.40;99.90;;;;;;5047233;28;20017;-61
2021/04/05 09:50:28;;;;;;;13.40;2.67;;;5.30;99.90;;;;;;5047717;28;20029;-59
2021/04/05 09:53:04;;;;;;;9.20;2.50;;;5.30;99.90;;;;;;5040821;28;20083;-60
2021/04/05 09:55:33;;;;;;;19.95;2.70;;;5.20;99.90;;;;;;5049300;28;20032;-59
2021/04/05 09:58:03;;;;;;;10.55;2.35;;;5.20;99.90;;;;;;5046928;28;20028;-59
2021/04/05 10:00:29;;;;;;;14.32;2.50;;;5.30;99.90;;;;;;5050047;28;20076;-60
2021/04/05 10:03:08;;;;;;;11.02;2.50;;;5.20;99.90;;;;;;5049630;28;20041;-60
2021/04/05 10:05:41;;;;;;;14.77;2.70;;;5.20;99.90;;;;;;5048729;28;20031;-59
2021/04/05 10:08:21;;;;;;;10.80;2.80;;;5.30;99.90;;;;;;5050336;28;20535;-59
2021/04/05 10:10:47;;;;;;;8.27;2.50;;;5.30;99.90;;;;;;5044182;28;20032;-60
2021/04/05 10:13:14;;;;;;;8.77;2.35;;;5.30;99.90;;;;;;5049841;28;20032;-59
2021/04/05 10:15:45;;;;;;;12.63;2.60;;;5.30;99.90;;;;;;5051631;28;20393;-60
2021/04/05 10:18:13;;;;;;;9.73;2.30;;;5.30;99.90;;;;;;5054269;28;20487;-60
2021/04/05 10:20:40;;;;;;;14.55;2.75;;;5.30;99.90;;;;;;5054258;28;20123;-60
2021/04/05 10:23:12;;;;;;;11.70;1.90;;;5.20;99.90;;;;;;5050370;28;20087;-60
2021/04/05 10:25:44;;;;;;;7.22;1.88;;;5.20;99.90;;;;;;5052519;28;20502;-60
2021/04/05 10:28:15;;;;;;;4.97;1.58;;;5.40;99.90;;;;;;5054147;28;20491;-60
2021/04/05 10:30:42;;;;;;;6.20;1.63;;;5.60;99.90;;;;;;5052822;28;20534;-59
2021/04/05 10:33:13;;;;;;;4.47;1.60;;;5.60;98.30;;;;;;5053056;28;20030;-57
2021/04/05 10:35:44;;;;;;;5.55;1.40;;;5.60;98.70;;;;;;5047111;28;20031;-60
2021/04/05 10:38:11;;;;;;;8.65;1.45;;;5.70;98.00;;;;;;5049773;28;20033;-61
2021/04/05 10:40:39;;;;;;;8.82;1.33;;;5.80;96.80;;;;;;5050457;28;20533;-60
2021/04/05 10:43:16;;;;;;;5.32;1.25;;;6.00;96.10;;;;;;5052638;28;20493;-59
2021/04/05 10:45:46;;;;;;;4.90;1.30;;;6.10;95.00;;;;;;5049702;28;20036;-59
2021/04/05 10:48:25;;;;;;;6.45;1.10;;;6.20;93.20;;;;;;5048398;28;20025;-58
2021/04/05 10:50:57;;;;;;;11.48;1.40;;;6.20;92.80;;;;;;5052660;28;20029;-58
2021/04/05 10:53:27;;;;;;;3.58;1.20;;;6.10;92.70;;;;;;5047606;28;20384;-59
2021/04/05 10:55:59;;;;;;;5.00;1.38;;;6.10;93.30;;;;;;5046485;28;20052;-58
2021/04/05 10:58:31;;;;;;;11.00;1.40;;;6.00;92.10;;;;;;5047002;28;20141;-59
2021/04/05 11:00:59;;;;;;;8.60;1.50;;;6.20;91.40;;;;;;5050663;28;20055;-59
2021/04/05 11:03:30;;;;;;;11.73;1.27;;;6.20;91.80;;;;;;5053606;28;20021;-61
2021/04/05 11:06:00;;;;;;;3.58;1.35;;;6.20;92.90;;;;;;5052936;28;20102;-60
2021/04/05 11:08:33;;;;;;;9.23;1.88;;;6.40;92.00;;;;;;5053617;28;20025;-59
2021/04/05 11:11:10;;;;;;;5.72;1.60;;;6.40;91.20;;;;;;5053325;28;20052;-59
2021/04/05 11:13:37;;;;;;;7.75;1.58;;;6.40;91.50;;;;;;5052997;28;20028;-59
2021/04/05 11:16:09;;;;;;;8.93;1.30;;;6.50;90.50;;;;;;5052435;28;20032;-59
2021/04/05 11:18:43;;;;;;;6.00;1.27;;;6.30;90.70;;;;;;5053507;28;20112;-60
2021/04/05 11:21:09;;;;;;;3.13;0.95;;;6.40;89.10;;;;;;5053599;28;20040;-59
2021/04/05 11:23:36;;;;;;;9.55;1.40;;;6.50;89.30;;;;;;5052462;28;20052;-59
2021/04/05 11:26:04;;;;;;;6.22;1.30;;;6.80;90.30;;;;;;5052605;28;20032;-59
2021/04/05 11:28:33;;;;;;;6.30;1.17;;;6.90;88.20;;;;;;5051161;28;20025;-59
2021/04/05 11:31:05;;;;;;;6.20;1.40;;;6.80;88.30;;;;;;5051547;28;20096;-60
2021/04/05 11:33:36;;;;;;;8.93;1.63;;;7.10;90.10;;;;;;5052953;28;20028;-60
2021/04/05 11:36:05;;;;;;;2.05;0.93;;;7.30;87.50;;;;;;5052655;28;20032;-59
2021/04/05 11:38:36;;;;;;;11.40;1.30;;;6.90;84.10;;;;;;5053029;28;20040;-59
2021/04/05 11:41:04;;;;;;;21.33;1.20;;;6.90;88.00;;;;;;5048387;28;20049;-59
2021/04/05 11:43:32;;;;;;;5.03;1.65;;;7.00;87.70;;;;;;5051234;28;20036;-59
2021/04/05 11:46:07;;;;;;;7.97;1.13;;;7.10;86.00;;;;;;5049403;28;20431;-59
2021/04/05 11:48:33;;;;;;;9.52;2.00;;;7.20;86.20;;;;;;5052006;28;20607;-59
2021/04/05 11:50:59;;;;;;;7.43;1.85;;;7.00;83.90;;;;;;5051510;28;20025;-60
2021/04/05 11:53:48;;;;;;;7.60;1.58;;;6.60;85.40;;;;;;5050586;28;20429;-59
2021/04/05 11:56:16;;;;;;;3.05;1.23;;;6.30;85.90;;;;;;5055061;28;20100;-60
2021/04/05 11:58:51;;;;;;;5.70;1.30;;;6.40;87.40;;;;;;5051802;28;20499;-59
2021/04/05 12:01:21;;;;;;;11.55;1.38;;;6.60;83.90;;;;;;5049579;28;20029;-59
2021/04/05 12:03:52;;;;;;;5.35;1.65;;;6.60;82.20;;;;;;5052143;28;20041;-59
2021/04/05 12:06:40;;;;;;;9.93;1.40;;;6.70;81.50;;;;;;5052010;28;20186;-60
2021/04/05 12:09:26;;;;;;;9.93;1.60;;;6.80;83.00;;;;;;5053621;28;20493;-59
2021/04/05 12:11:54;;;;;;;8.70;1.33;;;6.70;82.00;;;;;;5050113;28;20037;-60
2021/04/05 12:14:26;;;;;;;4.78;1.15;;;6.70;82.70;;;;;;5050334;28;20727;-59
2021/04/05 12:16:54;;;;;;;5.63;1.95;;;6.90;85.20;;;;;;5050793;28;20036;-60
2021/04/05 12:19:26;;;;;;;24.63;2.08;;;6.80;82.60;;;;;;5050487;28;20087;-59
2021/04/05 12:21:52;;;;;;;3.72;1.33;;;6.90;83.70;;;;;;5048772;28;20032;-60
2021/04/05 12:24:31;;;;;;;5.63;1.48;;;7.00;83.80;;;;;;5050204;28;20505;-60
2021/04/05 12:27:11;;;;;;;6.47;1.58;;;6.90;84.30;;;;;;5046134;28;20032;-60
2021/04/05 12:29:40;;;;;;;4.90;1.40;;;6.60;85.20;;;;;;5051826;28;20028;-60
2021/04/05 12:32:07;;;;;;;5.65;1.80;;;6.50;85.60;;;;;;5051896;28;20029;-60
2021/04/05 12:34:37;;;;;;;5.25;1.40;;;6.60;85.20;;;;;;5051481;28;20070;-62
2021/04/05 12:37:13;;;;;;;6.70;1.40;;;6.70;87.80;;;;;;5051013;28;20056;-60
2021/04/05 12:39:41;;;;;;;9.23;1.10;;;6.70;85.20;;;;;;5050697;28;20458;-60
2021/04/05 12:42:09;;;;;;;11.30;1.40;;;6.60;83.50;;;;;;5051408;28;20067;-60
2021/04/05 12:44:37;;;;;;;4.82;1.13;;;6.60;83.20;;;;;;5051469;28;20067;-61
2021/04/05 12:47:06;;;;;;;8.23;1.33;;;6.80;82.70;;;;;;5051774;28;20029;-60
2021/04/05 12:49:47;;;;;;;8.15;1.25;;;7.10;83.80;;;;;;5051636;28;20503;-60
2021/04/05 12:52:18;;;;;;;3.00;1.13;;;7.20;83.90;;;;;;5051783;28;20549;-60
2021/04/05 12:54:53;;;;;;;4.32;1.30;;;7.30;84.30;;;;;;5041721;28;20029;-60
2021/04/05 12:57:27;;;;;;;4.53;1.30;;;7.30;83.80;;;;;;5050651;28;20036;-60
2021/04/05 12:59:53;;;;;;;16.63;1.83;;;7.30;85.60;;;;;;5051052;28;20040;-62
2021/04/05 13:02:21;;;;;;;8.38;1.27;;;7.20;84.10;;;;;;5051158;28;20037;-59
2021/04/05 13:04:57;;;;;;;4.40;1.25;;;6.90;83.30;;;;;;5037576;28;20032;-61
2021/04/05 13:07:35;;;;;;;7.75;1.30;;;6.80;83.20;;;;;;5051034;28;20127;-62
2021/04/05 13:10:07;;;;;;;9.40;1.67;;;6.90;83.00;;;;;;5045009;28;20064;-60
2021/04/05 13:12:53;;;;;;;10.88;1.33;;;7.00;84.10;;;;;;5050718;28;20033;-60
2021/04/05 13:15:26;;;;;;;11.55;1.40;;;7.10;83.50;;;;;;5040007;28;20399;-60
2021/04/05 13:17:53;;;;;;;4.97;1.30;;;7.30;85.20;;;;;;5050792;28;20037;-61
2021/04/05 13:20:21;;;;;;;20.45;1.55;;;7.50;84.60;;;;;;5051014;28;20056;-61